sensor_id;sensor_type;location;lat;lon;timestamp;P1;P2;P0
47711;PMS7003;57457;51.634;5.886;2023-02-22T00:09:00;20.41;17.99;5.79
47711;PMS7003;57457;51.634;5.886;2023-02-22T00:22:19;20.89;18.32;6.0
47711;PMS7003;57457;51.634;5.886;2023-02-22T00:35:39;27.25;22.9;10.47
47711;PMS7003;57457;51.634;5.886;2023-02-22T00:48:59;22.09;18.54;6.0
47711;PMS7003;57457;51.634;5.886;2023-02-22T01:02:18;24.97;19.08;6.44
47711;PMS7003;57457;51.634;5.886;2023-02-22T01:15:38;23.41;19.3;6.66
47711;PMS7003;57457;51.634;5.886;2023-02-22T01:28:57;22.93;19.19;6.77
47711;PMS7003;57457;51.634;5.886;2023-02-22T01:42:17;25.33;20.17;7.09
47711;PMS7003;57457;51.634;5.886;2023-02-22T01:55:37;23.77;20.83;7.53
47711;PMS7003;57457;51.634;5.886;2023-02-22T02:08:56;27.13;20.94;7.42
47711;PMS7003;57457;51.634;5.886;2023-02-22T02:22:16;27.01;22.25;8.08
47711;PMS7003;57457;51.634;5.886;2023-02-22T02:35:35;26.17;22.46;8.4
47711;PMS7003;57457;51.634;5.886;2023-02-22T02:48:55;28.45;22.35;8.29
47711;PMS7003;57457;51.634;5.886;2023-02-22T03:02:15;30.25;23.34;8.62
47711;PMS7003;57457;51.634;5.886;2023-02-22T03:15:34;27.37;23.01;8.4
47711;PMS7003;57457;51.634;5.886;2023-02-22T03:28:54;32.89;25.19;9.17
47711;PMS7003;57457;51.634;5.886;2023-02-22T03:42:13;29.41;23.01;8.29
47711;PMS7003;57457;51.634;5.886;2023-02-22T03:55:33;26.29;21.48;8.4
47711;PMS7003;57457;51.634;5.886;2023-02-22T04:08:53;26.29;21.16;7.75
47711;PMS7003;57457;51.634;5.886;2023-02-22T04:22:12;28.81;21.37;7.75
47711;PMS7003;57457;51.634;5.886;2023-02-22T04:35:32;31.69;22.14;7.97
47711;PMS7003;57457;51.634;5.886;2023-02-22T04:48:52;23.89;20.72;6.99
47711;PMS7003;57457;51.634;5.886;2023-02-22T05:02:11;27.97;22.14;8.08
47711;PMS7003;57457;51.634;5.886;2023-02-22T05:15:31;25.69;20.94;7.75
47711;PMS7003;57457;51.634;5.886;2023-02-22T05:28:51;29.05;21.37;7.75
47711;PMS7003;57457;51.634;5.886;2023-02-22T05:42:10;31.33;21.37;7.97
47711;PMS7003;57457;51.634;5.886;2023-02-22T05:55:30;25.69;21.05;7.53
47711;PMS7003;57457;51.634;5.886;2023-02-22T06:08:49;29.41;21.26;7.42
47711;PMS7003;57457;51.634;5.886;2023-02-22T06:22:09;24.85;20.83;7.31
47711;PMS7003;57457;51.634;5.886;2023-02-22T06:35:29;30.01;19.74;6.99
47711;PMS7003;57457;51.634;5.886;2023-02-22T06:48:48;30.49;21.26;7.31
47711;PMS7003;57457;51.634;5.886;2023-02-22T07:02:08;30.25;19.74;6.99
47711;PMS7003;57457;51.634;5.886;2023-02-22T07:15:27;23.41;18.98;6.66
47711;PMS7003;57457;51.634;5.886;2023-02-22T07:28:47;26.77;18.1;6.55
47711;PMS7003;57457;51.634;5.886;2023-02-22T07:42:07;25.57;18.98;6.44
47711;PMS7003;57457;51.634;5.886;2023-02-22T07:55:26;22.33;17.89;6.44
47711;PMS7003;57457;51.634;5.886;2023-02-22T08:08:46;21.97;19.08;7.09
47711;PMS7003;57457;51.634;5.886;2023-02-22T08:22:06;26.17;19.52;6.88
47711;PMS7003;57457;51.634;5.886;2023-02-22T08:35:25;27.61;20.5;7.86
47711;PMS7003;57457;51.634;5.886;2023-02-22T08:48:45;24.85;19.52;6.99
47711;PMS7003;57457;51.634;5.886;2023-02-22T09:02:05;24.13;20.72;7.64
47711;PMS7003;57457;51.634;5.886;2023-02-22T09:15:24;25.21;21.37;8.73
47711;PMS7003;57457;51.634;5.886;2023-02-22T09:28:44;27.13;21.81;8.62
47711;PMS7003;57457;51.634;5.886;2023-02-22T09:42:03;21.01;19.63;7.86
47711;PMS7003;57457;51.634;5.886;2023-02-22T09:55:23;22.93;20.5;7.64
47711;PMS7003;57457;51.634;5.886;2023-02-22T10:08:43;20.65;19.41;7.53
47711;PMS7003;57457;51.634;5.886;2023-02-22T10:22:02;21.85;18.87;7.31
47711;PMS7003;57457;51.634;5.886;2023-02-22T10:35:22;19.21;18.54;7.64
47711;PMS7003;57457;51.634;5.886;2023-02-22T10:48:41;21.85;20.17;8.4
47711;PMS7003;57457;51.634;5.886;2023-02-22T11:02:01;20.53;18.76;7.09
47711;PMS7003;57457;51.634;5.886;2023-02-22T11:15:20;17.53;16.25;6.55
47711;PMS7003;57457;51.634;5.886;2023-02-22T11:28:40;15.49;16.03;6.66
47711;PMS7003;57457;51.634;5.886;2023-02-22T11:42:00;13.45;15.38;6.22
47711;PMS7003;57457;51.634;5.886;2023-02-22T11:55:19;12.73;14.07;5.46
47711;PMS7003;57457;51.634;5.886;2023-02-22T12:08:39;11.41;13.53;5.79
47711;PMS7003;57457;51.634;5.886;2023-02-22T12:21:58;14.05;14.29;6.22
47711;PMS7003;57457;51.634;5.886;2023-02-22T12:35:18;10.69;12.87;5.46
47711;PMS7003;57457;51.634;5.886;2023-02-22T12:48:38;13.45;13.96;6.22
47711;PMS7003;57457;51.634;5.886;2023-02-22T13:01:57;11.53;13.09;6.33
47711;PMS7003;57457;51.634;5.886;2023-02-22T13:15:17;12.85;14.83;6.44
47711;PMS7003;57457;51.634;5.886;2023-02-22T13:28:36;17.41;16.9;7.64
47711;PMS7003;57457;51.634;5.886;2023-02-22T13:41:56;14.77;16.47;7.31
47711;PMS7003;57457;51.634;5.886;2023-02-22T13:55:16;18.01;17.23;7.31
47711;PMS7003;57457;51.634;5.886;2023-02-22T14:08:35;17.89;17.23;7.75
47711;PMS7003;57457;51.634;5.886;2023-02-22T14:21:55;16.09;16.8;7.53
47711;PMS7003;57457;51.634;5.886;2023-02-22T14:35:14;15.61;16.25;7.97
47711;PMS7003;57457;51.634;5.886;2023-02-22T14:48:34;17.17;18.1;8.08
47711;PMS7003;57457;51.634;5.886;2023-02-22T15:01:54;15.73;16.9;8.18
47711;PMS7003;57457;51.634;5.886;2023-02-22T15:15:13;17.53;17.89;8.4
47711;PMS7003;57457;51.634;5.886;2023-02-22T15:28:33;19.33;18.87;9.17
47711;PMS7003;57457;51.634;5.886;2023-02-22T15:41:53;21.85;20.39;10.47
47711;PMS7003;57457;51.634;5.886;2023-02-22T15:55:12;23.53;20.83;10.91
47711;PMS7003;57457;51.634;5.886;2023-02-22T16:08:32;26.65;22.46;11.24
47711;PMS7003;57457;51.634;5.886;2023-02-22T16:21:52;27.85;24.32;12.33
47711;PMS7003;57457;51.634;5.886;2023-02-22T16:35:11;28.69;24.21;12.33
47711;PMS7003;57457;51.634;5.886;2023-02-22T16:48:31;28.93;23.34;12.33
47711;PMS7003;57457;51.634;5.886;2023-02-22T17:01:50;27.97;24.21;12.22
47711;PMS7003;57457;51.634;5.886;2023-02-22T17:15:10;29.29;23.88;12.22
47711;PMS7003;57457;51.634;5.886;2023-02-22T17:28:30;29.17;23.66;12.54
47711;PMS7003;57457;51.634;5.886;2023-02-22T17:41:49;27.01;23.12;12.22
47711;PMS7003;57457;51.634;5.886;2023-02-22T17:55:09;27.85;24.32;12.44
47711;PMS7003;57457;51.634;5.886;2023-02-22T18:08:28;27.61;24.21;12.44
47711;PMS7003;57457;51.634;5.886;2023-02-22T18:21:48;27.97;24.32;13.09
47711;PMS7003;57457;51.634;5.886;2023-02-22T18:35:08;27.37;23.77;12.65
47711;PMS7003;57457;51.634;5.886;2023-02-22T18:48:27;29.17;24.53;12.87
47711;PMS7003;57457;51.634;5.886;2023-02-22T19:01:47;30.73;26.39;13.53
47711;PMS7003;57457;51.634;5.886;2023-02-22T19:15:07;31.93;26.82;14.07
47711;PMS7003;57457;51.634;5.886;2023-02-22T19:41:46;38.06;30.31;15.49
47711;PMS7003;57457;51.634;5.886;2023-02-22T19:55:05;40.1;32.05;15.81
47711;PMS7003;57457;51.634;5.886;2023-02-22T20:08:25;44.54;35.32;17.23
47711;PMS7003;57457;51.634;5.886;2023-02-22T20:21:45;47.42;40.45;17.67
47711;PMS7003;57457;51.634;5.886;2023-02-22T20:35:04;46.34;40.88;17.89
47711;PMS7003;57457;51.634;5.886;2023-02-22T20:48:24;44.42;37.4;17.01
47711;PMS7003;57457;51.634;5.886;2023-02-22T21:01:43;44.54;35.87;16.14
47711;PMS7003;57457;51.634;5.886;2023-02-22T21:15:03;45.62;35.43;16.47
47711;PMS7003;57457;51.634;5.886;2023-02-22T21:28:23;41.42;33.58;15.81
47711;PMS7003;57457;51.634;5.886;2023-02-22T21:41:42;41.18;33.36;15.81
47711;PMS7003;57457;51.634;5.886;2023-02-22T21:55:02;41.54;31.73;15.38
47711;PMS7003;57457;51.634;5.886;2023-02-22T22:08:22;40.58;31.62;15.49
47711;PMS7003;57457;51.634;5.886;2023-02-22T22:21:41;39.74;30.96;14.94
47711;PMS7003;57457;51.634;5.886;2023-02-22T22:35:01;38.06;29.88;15.05
47711;PMS7003;57457;51.634;5.886;2023-02-22T22:48:20;39.62;29.22;14.4
47711;PMS7003;57457;51.634;5.886;2023-02-22T23:01:40;38.3;30.64;14.4
47711;PMS7003;57457;51.634;5.886;2023-02-22T23:28:19;35.42;27.91;13.42
47711;PMS7003;57457;51.634;5.886;2023-02-22T23:41:39;36.74;28.79;13.96
47711;PMS7003;57457;51.634;5.886;2023-02-22T23:54:58;36.02;28.79;13.74
